sensor_id;sensor_type;location;lat;lon;timestamp;temperature;humidity
5779;DHT22;2916;49.798;10.022;2022-09-09T00:00:32;16.30;92.70
5779;DHT22;2916;49.798;10.022;2022-09-09T00:03:07;16.20;94.30
5779;DHT22;2916;49.798;10.022;2022-09-09T00:05:45;16.10;95.30
5779;DHT22;2916;49.798;10.022;2022-09-09T00:08:24;16.00;97.50
5779;DHT22;2916;49.798;10.022;2022-09-09T00:11:01;15.90;99.10
5779;DHT22;2916;49.798;10.022;2022-09-09T00:13:37;15.90;99.90
5779;DHT22;2916;49.798;10.022;2022-09-09T00:16:16;15.80;99.90
5779;DHT22;2916;49.798;10.022;2022-09-09T00:18:54;15.80;99.90
5779;DHT22;2916;49.798;10.022;2022-09-09T00:21:33;15.80;99.90
5779;DHT22;2916;49.798;10.022;2022-09-09T00:24:10;15.70;99.90
5779;DHT22;2916;49.798;10.022;2022-09-09T00:26:46;15.70;99.90
5779;DHT22;2916;49.798;10.022;2022-09-09T00:29:24;15.70;99.90
5779;DHT22;2916;49.798;10.022;2022-09-09T00:32:11;15.70;99.90
5779;DHT22;2916;49.798;10.022;2022-09-09T00:34:47;15.70;99.90
5779;DHT22;2916;49.798;10.022;2022-09-09T00:37:19;15.70;99.90
5779;DHT22;2916;49.798;10.022;2022-09-09T00:39:52;15.70;99.90
5779;DHT22;2916;49.798;10.022;2022-09-09T00:42:25;15.70;99.90
5779;DHT22;2916;49.798;10.022;2022-09-09T00:45:01;15.60;99.90
5779;DHT22;2916;49.798;10.022;2022-09-09T00:47:44;15.50;99.90
5779;DHT22;2916;49.798;10.022;2022-09-09T00:50:35;15.60;99.90
5779;DHT22;2916;49.798;10.022;2022-09-09T00:53:23;15.60;99.90
5779;DHT22;2916;49.798;10.022;2022-09-09T00:56:06;15.50;99.90
5779;DHT22;2916;49.798;10.022;2022-09-09T00:58:42;15.60;99.90
5779;DHT22;2916;49.798;10.022;2022-09-09T01:01:14;15.60;99.90
5779;DHT22;2916;49.798;10.022;2022-09-09T01:03:46;15.50;99.90
5779;DHT22;2916;49.798;10.022;2022-09-09T01:06:24;15.60;99.90
5779;DHT22;2916;49.798;10.022;2022-09-09T01:09:11;15.50;99.90
5779;DHT22;2916;49.798;10.022;2022-09-09T01:11:57;15.50;99.90
5779;DHT22;2916;49.798;10.022;2022-09-09T01:14:39;15.50;99.90
5779;DHT22;2916;49.798;10.022;2022-09-09T01:17:15;15.50;99.90
5779;DHT22;2916;49.798;10.022;2022-09-09T01:19:58;15.50;99.90
5779;DHT22;2916;49.798;10.022;2022-09-09T01:22:35;15.50;99.90
5779;DHT22;2916;49.798;10.022;2022-09-09T01:25:26;15.50;99.90
5779;DHT22;2916;49.798;10.022;2022-09-09T01:27:59;15.50;99.90
5779;DHT22;2916;49.798;10.022;2022-09-09T01:30:30;15.50;99.90
5779;DHT22;2916;49.798;10.022;2022-09-09T01:32:59;15.50;99.90
5779;DHT22;2916;49.798;10.022;2022-09-09T01:35:35;15.50;99.90
5779;DHT22;2916;49.798;10.022;2022-09-09T01:38:10;15.60;99.90
5779;DHT22;2916;49.798;10.022;2022-09-09T01:40:37;15.60;99.90
5779;DHT22;2916;49.798;10.022;2022-09-09T01:43:07;15.60;99.90
5779;DHT22;2916;49.798;10.022;2022-09-09T01:45:34;15.60;99.90
5779;DHT22;2916;49.798;10.022;2022-09-09T01:48:02;15.60;99.90
5779;DHT22;2916;49.798;10.022;2022-09-09T01:50:30;15.70;99.90
5779;DHT22;2916;49.798;10.022;2022-09-09T01:52:59;15.70;99.90
5779;DHT22;2916;49.798;10.022;2022-09-09T01:55:31;15.70;99.90
5779;DHT22;2916;49.798;10.022;2022-09-09T01:58:20;15.80;99.90
5779;DHT22;2916;49.798;10.022;2022-09-09T02:01:04;15.80;99.90
5779;DHT22;2916;49.798;10.022;2022-09-09T02:03:36;15.80;99.90
5779;DHT22;2916;49.798;10.022;2022-09-09T02:06:13;15.80;99.90
5779;DHT22;2916;49.798;10.022;2022-09-09T02:08:54;15.90;99.90
5779;DHT22;2916;49.798;10.022;2022-09-09T02:11:25;15.90;99.90
5779;DHT22;2916;49.798;10.022;2022-09-09T02:13:59;15.90;99.90
5779;DHT22;2916;49.798;10.022;2022-09-09T02:16:32;15.90;99.90
5779;DHT22;2916;49.798;10.022;2022-09-09T02:19:08;16.00;99.90
5779;DHT22;2916;49.798;10.022;2022-09-09T02:21:42;15.90;99.90
5779;DHT22;2916;49.798;10.022;2022-09-09T02:24:13;15.90;99.90
5779;DHT22;2916;49.798;10.022;2022-09-09T02:26:44;15.90;99.90
5779;DHT22;2916;49.798;10.022;2022-09-09T02:29:20;15.90;99.90
5779;DHT22;2916;49.798;10.022;2022-09-09T02:31:51;15.90;99.90
5779;DHT22;2916;49.798;10.022;2022-09-09T02:34:23;15.80;99.90
5779;DHT22;2916;49.798;10.022;2022-09-09T02:36:54;15.90;99.90
5779;DHT22;2916;49.798;10.022;2022-09-09T02:39:23;15.90;99.90
5779;DHT22;2916;49.798;10.022;2022-09-09T02:41:50;15.90;99.90
5779;DHT22;2916;49.798;10.022;2022-09-09T02:44:19;15.90;99.90
5779;DHT22;2916;49.798;10.022;2022-09-09T02:47:07;15.90;99.90
5779;DHT22;2916;49.798;10.022;2022-09-09T02:49:57;15.90;99.90
5779;DHT22;2916;49.798;10.022;2022-09-09T02:52:38;15.80;99.90
5779;DHT22;2916;49.798;10.022;2022-09-09T02:55:22;15.80;99.90
5779;DHT22;2916;49.798;10.022;2022-09-09T02:58:09;15.80;99.90
5779;DHT22;2916;49.798;10.022;2022-09-09T03:00:45;15.80;99.90
5779;DHT22;2916;49.798;10.022;2022-09-09T03:03:14;15.80;99.90
5779;DHT22;2916;49.798;10.022;2022-09-09T03:05:42;15.90;99.90
5779;DHT22;2916;49.798;10.022;2022-09-09T03:08:11;15.80;99.90
5779;DHT22;2916;49.798;10.022;2022-09-09T03:10:39;15.80;99.90
5779;DHT22;2916;49.798;10.022;2022-09-09T03:13:06;15.80;99.90
5779;DHT22;2916;49.798;10.022;2022-09-09T03:15:34;15.80;99.90
5779;DHT22;2916;49.798;10.022;2022-09-09T03:18:04;15.80;99.90
5779;DHT22;2916;49.798;10.022;2022-09-09T03:20:31;15.80;99.90
5779;DHT22;2916;49.798;10.022;2022-09-09T03:22:59;15.90;99.90
5779;DHT22;2916;49.798;10.022;2022-09-09T03:25:28;15.90;99.90
5779;DHT22;2916;49.798;10.022;2022-09-09T03:27:55;15.90;99.90
5779;DHT22;2916;49.798;10.022;2022-09-09T03:30:23;15.90;99.90
5779;DHT22;2916;49.798;10.022;2022-09-09T03:32:51;15.90;99.90
5779;DHT22;2916;49.798;10.022;2022-09-09T03:35:20;15.80;99.90
5779;DHT22;2916;49.798;10.022;2022-09-09T03:37:47;15.90;99.90
5779;DHT22;2916;49.798;10.022;2022-09-09T03:40:14;15.90;99.90
5779;DHT22;2916;49.798;10.022;2022-09-09T03:42:42;15.90;99.90
5779;DHT22;2916;49.798;10.022;2022-09-09T03:45:09;15.90;99.90
5779;DHT22;2916;49.798;10.022;2022-09-09T03:47:37;15.80;99.90
5779;DHT22;2916;49.798;10.022;2022-09-09T03:50:05;15.80;99.90
5779;DHT22;2916;49.798;10.022;2022-09-09T03:52:38;15.80;99.90
5779;DHT22;2916;49.798;10.022;2022-09-09T03:55:07;15.80;99.90
5779;DHT22;2916;49.798;10.022;2022-09-09T03:57:35;15.80;99.90
5779;DHT22;2916;49.798;10.022;2022-09-09T04:00:03;15.80;99.90
5779;DHT22;2916;49.798;10.022;2022-09-09T04:02:31;15.80;99.90
5779;DHT22;2916;49.798;10.022;2022-09-09T04:04:59;15.80;99.90
5779;DHT22;2916;49.798;10.022;2022-09-09T04:07:26;15.80;99.90
5779;DHT22;2916;49.798;10.022;2022-09-09T04:09:55;15.70;99.90
5779;DHT22;2916;49.798;10.022;2022-09-09T04:12:22;15.70;99.90
5779;DHT22;2916;49.798;10.022;2022-09-09T04:14:49;15.70;99.90
5779;DHT22;2916;49.798;10.022;2022-09-09T04:17:17;15.70;99.90
5779;DHT22;2916;49.798;10.022;2022-09-09T04:19:44;15.70;99.90
5779;DHT22;2916;49.798;10.022;2022-09-09T04:22:12;15.70;99.90
5779;DHT22;2916;49.798;10.022;2022-09-09T04:24:39;15.80;99.90
5779;DHT22;2916;49.798;10.022;2022-09-09T04:27:07;15.80;99.90
5779;DHT22;2916;49.798;10.022;2022-09-09T04:29:34;15.80;99.90
5779;DHT22;2916;49.798;10.022;2022-09-09T04:32:02;15.80;99.90
5779;DHT22;2916;49.798;10.022;2022-09-09T04:34:30;15.80;99.90
5779;DHT22;2916;49.798;10.022;2022-09-09T04:36:58;15.80;99.90
5779;DHT22;2916;49.798;10.022;2022-09-09T04:39:26;15.80;99.90
5779;DHT22;2916;49.798;10.022;2022-09-09T04:41:53;15.80;99.90
5779;DHT22;2916;49.798;10.022;2022-09-09T04:44:22;15.80;99.90
5779;DHT22;2916;49.798;10.022;2022-09-09T04:46:49;15.80;99.90
5779;DHT22;2916;49.798;10.022;2022-09-09T04:49:16;15.80;99.90
5779;DHT22;2916;49.798;10.022;2022-09-09T04:51:43;15.80;99.90
5779;DHT22;2916;49.798;10.022;2022-09-09T04:54:11;15.80;99.90
5779;DHT22;2916;49.798;10.022;2022-09-09T04:56:38;15.80;99.90
5779;DHT22;2916;49.798;10.022;2022-09-09T04:59:07;15.90;99.90
5779;DHT22;2916;49.798;10.022;2022-09-09T05:01:36;15.80;99.90
5779;DHT22;2916;49.798;10.022;2022-09-09T05:04:03;15.80;99.90
5779;DHT22;2916;49.798;10.022;2022-09-09T05:06:31;15.70;99.90
5779;DHT22;2916;49.798;10.022;2022-09-09T05:08:58;15.70;99.90
5779;DHT22;2916;49.798;10.022;2022-09-09T05:11:26;15.80;99.90
5779;DHT22;2916;49.798;10.022;2022-09-09T05:13:55;15.70;99.90
5779;DHT22;2916;49.798;10.022;2022-09-09T05:16:23;15.80;99.90
5779;DHT22;2916;49.798;10.022;2022-09-09T05:18:51;15.80;99.90
5779;DHT22;2916;49.798;10.022;2022-09-09T05:21:20;15.90;99.90
5779;DHT22;2916;49.798;10.022;2022-09-09T05:23:50;15.90;99.90
5779;DHT22;2916;49.798;10.022;2022-09-09T05:26:19;16.20;99.90
5779;DHT22;2916;49.798;10.022;2022-09-09T05:28:48;16.60;99.90
5779;DHT22;2916;49.798;10.022;2022-09-09T05:31:17;16.70;99.90
5779;DHT22;2916;49.798;10.022;2022-09-09T05:33:46;17.00;99.90
5779;DHT22;2916;49.798;10.022;2022-09-09T05:36:17;17.30;99.90
5779;DHT22;2916;49.798;10.022;2022-09-09T05:38:46;17.60;99.90
5779;DHT22;2916;49.798;10.022;2022-09-09T05:41:15;17.40;99.90
5779;DHT22;2916;49.798;10.022;2022-09-09T05:43:43;17.00;99.90
5779;DHT22;2916;49.798;10.022;2022-09-09T05:46:14;16.90;99.90
5779;DHT22;2916;49.798;10.022;2022-09-09T05:48:44;16.70;99.90
5779;DHT22;2916;49.798;10.022;2022-09-09T05:51:14;16.80;99.90
5779;DHT22;2916;49.798;10.022;2022-09-09T05:53:44;16.60;99.90
5779;DHT22;2916;49.798;10.022;2022-09-09T05:56:14;16.60;99.90
5779;DHT22;2916;49.798;10.022;2022-09-09T05:58:43;16.70;99.90
5779;DHT22;2916;49.798;10.022;2022-09-09T06:01:14;16.80;99.90
5779;DHT22;2916;49.798;10.022;2022-09-09T06:03:44;16.70;99.90
5779;DHT22;2916;49.798;10.022;2022-09-09T06:06:14;16.70;99.90
5779;DHT22;2916;49.798;10.022;2022-09-09T06:08:47;16.70;99.90
5779;DHT22;2916;49.798;10.022;2022-09-09T06:11:16;16.60;99.90
5779;DHT22;2916;49.798;10.022;2022-09-09T06:13:44;16.50;99.90
5779;DHT22;2916;49.798;10.022;2022-09-09T06:16:17;16.50;99.90
5779;DHT22;2916;49.798;10.022;2022-09-09T06:18:46;16.50;99.90
5779;DHT22;2916;49.798;10.022;2022-09-09T06:21:17;16.50;99.90
5779;DHT22;2916;49.798;10.022;2022-09-09T06:23:46;16.60;99.90
5779;DHT22;2916;49.798;10.022;2022-09-09T06:26:16;16.60;99.90
5779;DHT22;2916;49.798;10.022;2022-09-09T06:28:45;16.60;99.90
5779;DHT22;2916;49.798;10.022;2022-09-09T06:31:14;16.60;99.90
5779;DHT22;2916;49.798;10.022;2022-09-09T06:33:43;16.60;99.90
5779;DHT22;2916;49.798;10.022;2022-09-09T06:36:12;16.60;99.90
5779;DHT22;2916;49.798;10.022;2022-09-09T06:38:42;16.50;99.90
5779;DHT22;2916;49.798;10.022;2022-09-09T06:41:09;16.50;99.90
5779;DHT22;2916;49.798;10.022;2022-09-09T06:43:38;16.50;99.90
5779;DHT22;2916;49.798;10.022;2022-09-09T06:46:12;16.50;99.90
5779;DHT22;2916;49.798;10.022;2022-09-09T06:48:41;16.50;99.90
5779;DHT22;2916;49.798;10.022;2022-09-09T06:51:12;16.50;99.90
5779;DHT22;2916;49.798;10.022;2022-09-09T06:53:43;16.50;99.90
5779;DHT22;2916;49.798;10.022;2022-09-09T06:56:19;16.50;99.90
5779;DHT22;2916;49.798;10.022;2022-09-09T06:58:49;16.60;99.90
5779;DHT22;2916;49.798;10.022;2022-09-09T07:01:19;16.60;99.90
5779;DHT22;2916;49.798;10.022;2022-09-09T07:03:48;16.60;99.90
5779;DHT22;2916;49.798;10.022;2022-09-09T07:06:17;16.70;99.90
5779;DHT22;2916;49.798;10.022;2022-09-09T07:08:55;16.70;99.90
5779;DHT22;2916;49.798;10.022;2022-09-09T07:11:26;17.10;99.90
5779;DHT22;2916;49.798;10.022;2022-09-09T07:13:56;17.80;99.90
5779;DHT22;2916;49.798;10.022;2022-09-09T07:16:25;18.60;99.90
5779;DHT22;2916;49.798;10.022;2022-09-09T07:18:54;19.00;99.90
5779;DHT22;2916;49.798;10.022;2022-09-09T07:21:23;19.50;99.90
5779;DHT22;2916;49.798;10.022;2022-09-09T07:23:54;18.90;99.90
5779;DHT22;2916;49.798;10.022;2022-09-09T07:26:23;19.10;99.90
5779;DHT22;2916;49.798;10.022;2022-09-09T07:28:52;19.20;99.90
5779;DHT22;2916;49.798;10.022;2022-09-09T07:31:23;19.00;99.90
5779;DHT22;2916;49.798;10.022;2022-09-09T07:33:51;19.50;99.20
5779;DHT22;2916;49.798;10.022;2022-09-09T07:36:21;20.10;90.00
5779;DHT22;2916;49.798;10.022;2022-09-09T07:38:51;19.90;83.00
5779;DHT22;2916;49.798;10.022;2022-09-09T07:41:23;19.70;80.10
5779;DHT22;2916;49.798;10.022;2022-09-09T07:43:52;19.70;78.80
5779;DHT22;2916;49.798;10.022;2022-09-09T07:46:21;20.40;75.00
5779;DHT22;2916;49.798;10.022;2022-09-09T07:48:52;20.00;69.20
5779;DHT22;2916;49.798;10.022;2022-09-09T07:51:22;20.20;61.30
5779;DHT22;2916;49.798;10.022;2022-09-09T07:53:53;19.90;70.90
5779;DHT22;2916;49.798;10.022;2022-09-09T07:56:25;19.90;72.50
5779;DHT22;2916;49.798;10.022;2022-09-09T07:58:54;19.90;72.10
5779;DHT22;2916;49.798;10.022;2022-09-09T08:01:26;19.90;75.60
5779;DHT22;2916;49.798;10.022;2022-09-09T08:03:57;19.80;71.80
5779;DHT22;2916;49.798;10.022;2022-09-09T08:06:27;19.70;74.00
5779;DHT22;2916;49.798;10.022;2022-09-09T08:08:55;19.50;75.80
5779;DHT22;2916;49.798;10.022;2022-09-09T08:11:26;19.60;71.80
5779;DHT22;2916;49.798;10.022;2022-09-09T08:13:54;19.50;81.10
5779;DHT22;2916;49.798;10.022;2022-09-09T08:16:24;19.70;80.70
5779;DHT22;2916;49.798;10.022;2022-09-09T08:18:54;20.00;75.30
5779;DHT22;2916;49.798;10.022;2022-09-09T08:21:22;19.90;74.00
5779;DHT22;2916;49.798;10.022;2022-09-09T08:23:53;20.00;66.90
5779;DHT22;2916;49.798;10.022;2022-09-09T08:26:23;20.60;64.50
5779;DHT22;2916;49.798;10.022;2022-09-09T08:28:55;20.50;57.20
5779;DHT22;2916;49.798;10.022;2022-09-09T08:31:25;20.60;50.60
5779;DHT22;2916;49.798;10.022;2022-09-09T08:33:55;21.10;53.50
5779;DHT22;2916;49.798;10.022;2022-09-09T08:36:26;21.40;27.10
5779;DHT22;2916;49.798;10.022;2022-09-09T08:38:56;21.30;24.90
5779;DHT22;2916;49.798;10.022;2022-09-09T08:41:46;21.30;25.20
5779;DHT22;2916;49.798;10.022;2022-09-09T08:47:54;21.10;26.40
5779;DHT22;2916;49.798;10.022;2022-09-09T08:50:36;21.10;30.70
5779;DHT22;2916;49.798;10.022;2022-09-09T08:53:10;20.90;28.00
5779;DHT22;2916;49.798;10.022;2022-09-09T08:55:45;20.90;28.80
5779;DHT22;2916;49.798;10.022;2022-09-09T08:58:18;21.80;21.70
5779;DHT22;2916;49.798;10.022;2022-09-09T09:01:00;21.90;18.00
5779;DHT22;2916;49.798;10.022;2022-09-09T09:03:50;21.80;14.60
5779;DHT22;2916;49.798;10.022;2022-09-09T09:06:37;22.00;11.60
5779;DHT22;2916;49.798;10.022;2022-09-09T09:09:20;22.20;5.30
5779;DHT22;2916;49.798;10.022;2022-09-09T09:11:53;22.30;4.20
5779;DHT22;2916;49.798;10.022;2022-09-09T09:14:28;22.20;1.10
5779;DHT22;2916;49.798;10.022;2022-09-09T09:17:01;22.30;1.10
5779;DHT22;2916;49.798;10.022;2022-09-09T09:19:33;22.40;1.00
5779;DHT22;2916;49.798;10.022;2022-09-09T09:22:10;22.20;1.00
5779;DHT22;2916;49.798;10.022;2022-09-09T09:24:49;22.40;1.00
5779;DHT22;2916;49.798;10.022;2022-09-09T09:27:29;22.70;1.00
5779;DHT22;2916;49.798;10.022;2022-09-09T09:30:01;22.30;1.00
5779;DHT22;2916;49.798;10.022;2022-09-09T09:32:34;22.50;1.00
5779;DHT22;2916;49.798;10.022;2022-09-09T09:35:10;22.60;1.00
5779;DHT22;2916;49.798;10.022;2022-09-09T09:37:41;22.70;1.00
5779;DHT22;2916;49.798;10.022;2022-09-09T09:40:12;22.80;1.00
5779;DHT22;2916;49.798;10.022;2022-09-09T09:42:49;23.10;1.00
5779;DHT22;2916;49.798;10.022;2022-09-09T09:45:28;23.20;1.00
5779;DHT22;2916;49.798;10.022;2022-09-09T09:47:59;23.30;1.00
5779;DHT22;2916;49.798;10.022;2022-09-09T09:50:29;23.40;1.00
5779;DHT22;2916;49.798;10.022;2022-09-09T09:52:59;23.60;1.00
5779;DHT22;2916;49.798;10.022;2022-09-09T09:55:31;23.60;1.00
5779;DHT22;2916;49.798;10.022;2022-09-09T09:58:04;23.30;1.00
5779;DHT22;2916;49.798;10.022;2022-09-09T10:00:34;23.40;1.00
5779;DHT22;2916;49.798;10.022;2022-09-09T10:03:02;23.10;1.00
5779;DHT22;2916;49.798;10.022;2022-09-09T10:05:46;23.20;1.00
5779;DHT22;2916;49.798;10.022;2022-09-09T10:08:15;23.30;1.00
5779;DHT22;2916;49.798;10.022;2022-09-09T10:10:56;23.80;1.00
5779;DHT22;2916;49.798;10.022;2022-09-09T10:13:35;24.10;1.00
5779;DHT22;2916;49.798;10.022;2022-09-09T10:16:23;23.90;1.00
5779;DHT22;2916;49.798;10.022;2022-09-09T10:18:59;23.40;1.00
5779;DHT22;2916;49.798;10.022;2022-09-09T10:21:55;23.30;1.00
5779;DHT22;2916;49.798;10.022;2022-09-09T10:28:16;23.50;1.00
5779;DHT22;2916;49.798;10.022;2022-09-09T10:31:04;24.20;1.00
5779;DHT22;2916;49.798;10.022;2022-09-09T10:33:50;24.60;1.00
5779;DHT22;2916;49.798;10.022;2022-09-09T10:36:24;24.60;1.00
5779;DHT22;2916;49.798;10.022;2022-09-09T10:38:58;24.60;1.00
5779;DHT22;2916;49.798;10.022;2022-09-09T10:41:43;24.50;1.00
5779;DHT22;2916;49.798;10.022;2022-09-09T10:44:34;24.80;1.00
5779;DHT22;2916;49.798;10.022;2022-09-09T10:47:42;24.50;1.00
5779;DHT22;2916;49.798;10.022;2022-09-09T10:50:58;24.00;1.00
5779;DHT22;2916;49.798;10.022;2022-09-09T10:53:43;21.70;1.00
5779;DHT22;2916;49.798;10.022;2022-09-09T10:56:20;21.10;1.00
5779;DHT22;2916;49.798;10.022;2022-09-09T10:58:54;20.50;1.00
5779;DHT22;2916;49.798;10.022;2022-09-09T11:01:30;20.00;1.00
5779;DHT22;2916;49.798;10.022;2022-09-09T11:04:08;20.10;3.60
5779;DHT22;2916;49.798;10.022;2022-09-09T11:06:47;20.30;2.90
5779;DHT22;2916;49.798;10.022;2022-09-09T11:09:19;20.20;3.20
5779;DHT22;2916;49.798;10.022;2022-09-09T11:11:52;20.40;7.80
5779;DHT22;2916;49.798;10.022;2022-09-09T11:14:26;20.50;1.70
5779;DHT22;2916;49.798;10.022;2022-09-09T11:17:00;20.50;1.00
5779;DHT22;2916;49.798;10.022;2022-09-09T11:19:33;20.70;1.00
5779;DHT22;2916;49.798;10.022;2022-09-09T11:22:08;20.90;1.00
5779;DHT22;2916;49.798;10.022;2022-09-09T11:24:47;20.60;1.00
5779;DHT22;2916;49.798;10.022;2022-09-09T11:27:24;20.60;1.00
5779;DHT22;2916;49.798;10.022;2022-09-09T11:30:18;20.40;1.00
5779;DHT22;2916;49.798;10.022;2022-09-09T11:33:15;20.60;1.00
5779;DHT22;2916;49.798;10.022;2022-09-09T11:36:05;20.40;1.00
5779;DHT22;2916;49.798;10.022;2022-09-09T11:38:54;20.90;1.00
5779;DHT22;2916;49.798;10.022;2022-09-09T11:41:34;21.20;1.00
5779;DHT22;2916;49.798;10.022;2022-09-09T11:44:10;21.30;1.00
5779;DHT22;2916;49.798;10.022;2022-09-09T11:46:40;21.30;1.00
5779;DHT22;2916;49.798;10.022;2022-09-09T11:49:26;21.60;1.00
5779;DHT22;2916;49.798;10.022;2022-09-09T11:51:57;21.80;1.00
5779;DHT22;2916;49.798;10.022;2022-09-09T11:54:30;22.20;1.00
5779;DHT22;2916;49.798;10.022;2022-09-09T11:57:05;22.50;1.00
5779;DHT22;2916;49.798;10.022;2022-09-09T11:59:52;22.50;1.00
5779;DHT22;2916;49.798;10.022;2022-09-09T12:02:23;22.80;1.00
5779;DHT22;2916;49.798;10.022;2022-09-09T12:04:57;22.90;1.00
5779;DHT22;2916;49.798;10.022;2022-09-09T12:07:37;22.90;1.00
5779;DHT22;2916;49.798;10.022;2022-09-09T12:10:23;23.20;1.00
5779;DHT22;2916;49.798;10.022;2022-09-09T12:12:53;23.30;1.00
5779;DHT22;2916;49.798;10.022;2022-09-09T12:15:29;23.20;1.00
5779;DHT22;2916;49.798;10.022;2022-09-09T12:17:58;23.30;1.00
5779;DHT22;2916;49.798;10.022;2022-09-09T12:20:32;23.40;1.00
5779;DHT22;2916;49.798;10.022;2022-09-09T12:23:15;23.60;1.00
5779;DHT22;2916;49.798;10.022;2022-09-09T12:28:59;23.80;1.00
5779;DHT22;2916;49.798;10.022;2022-09-09T12:31:43;23.70;1.00
5779;DHT22;2916;49.798;10.022;2022-09-09T12:34:17;23.60;1.00
5779;DHT22;2916;49.798;10.022;2022-09-09T12:36:56;23.80;1.00
5779;DHT22;2916;49.798;10.022;2022-09-09T12:39:32;23.70;1.00
5779;DHT22;2916;49.798;10.022;2022-09-09T12:42:04;23.80;1.00
5779;DHT22;2916;49.798;10.022;2022-09-09T12:44:31;24.10;1.00
5779;DHT22;2916;49.798;10.022;2022-09-09T12:47:01;23.70;1.00
5779;DHT22;2916;49.798;10.022;2022-09-09T12:49:32;23.40;1.00
5779;DHT22;2916;49.798;10.022;2022-09-09T12:52:04;23.50;1.00
5779;DHT22;2916;49.798;10.022;2022-09-09T12:54:36;23.50;1.00
5779;DHT22;2916;49.798;10.022;2022-09-09T12:57:09;23.40;1.00
5779;DHT22;2916;49.798;10.022;2022-09-09T12:59:40;23.50;1.00
5779;DHT22;2916;49.798;10.022;2022-09-09T13:02:18;23.30;1.00
5779;DHT22;2916;49.798;10.022;2022-09-09T13:04:47;23.10;1.00
5779;DHT22;2916;49.798;10.022;2022-09-09T13:07:16;23.20;1.00
5779;DHT22;2916;49.798;10.022;2022-09-09T13:09:44;23.20;1.00
5779;DHT22;2916;49.798;10.022;2022-09-09T13:12:17;23.20;1.00
5779;DHT22;2916;49.798;10.022;2022-09-09T13:14:48;23.30;1.00
5779;DHT22;2916;49.798;10.022;2022-09-09T13:17:22;23.50;1.00
5779;DHT22;2916;49.798;10.022;2022-09-09T13:19:51;23.30;1.00
5779;DHT22;2916;49.798;10.022;2022-09-09T13:22:28;23.30;1.00
5779;DHT22;2916;49.798;10.022;2022-09-09T13:25:00;23.20;1.00
5779;DHT22;2916;49.798;10.022;2022-09-09T13:27:32;23.30;1.00
5779;DHT22;2916;49.798;10.022;2022-09-09T13:30:20;23.20;1.00
5779;DHT22;2916;49.798;10.022;2022-09-09T13:33:00;23.10;1.00
5779;DHT22;2916;49.798;10.022;2022-09-09T13:35:50;23.10;1.00
5779;DHT22;2916;49.798;10.022;2022-09-09T13:38:21;23.20;1.00
5779;DHT22;2916;49.798;10.022;2022-09-09T13:40:56;23.00;1.00
5779;DHT22;2916;49.798;10.022;2022-09-09T13:43:30;22.90;1.00
5779;DHT22;2916;49.798;10.022;2022-09-09T13:46:03;22.90;1.00
5779;DHT22;2916;49.798;10.022;2022-09-09T13:48:31;23.00;1.00
5779;DHT22;2916;49.798;10.022;2022-09-09T13:51:01;23.10;1.00
5779;DHT22;2916;49.798;10.022;2022-09-09T13:53:31;23.10;1.00
5779;DHT22;2916;49.798;10.022;2022-09-09T13:55:59;23.10;1.00
5779;DHT22;2916;49.798;10.022;2022-09-09T13:58:28;23.10;1.00
5779;DHT22;2916;49.798;10.022;2022-09-09T14:00:55;23.00;1.00
5779;DHT22;2916;49.798;10.022;2022-09-09T14:03:22;22.80;1.00
5779;DHT22;2916;49.798;10.022;2022-09-09T14:05:50;22.60;1.00
5779;DHT22;2916;49.798;10.022;2022-09-09T14:08:23;22.70;1.00
5779;DHT22;2916;49.798;10.022;2022-09-09T14:10:52;22.80;1.00
5779;DHT22;2916;49.798;10.022;2022-09-09T14:13:21;22.70;1.00
5779;DHT22;2916;49.798;10.022;2022-09-09T14:15:50;22.60;1.00
5779;DHT22;2916;49.798;10.022;2022-09-09T14:18:18;22.50;1.00
5779;DHT22;2916;49.798;10.022;2022-09-09T14:20:45;22.40;1.00
5779;DHT22;2916;49.798;10.022;2022-09-09T14:23:12;22.20;1.00
5779;DHT22;2916;49.798;10.022;2022-09-09T14:25:41;21.70;1.00
5779;DHT22;2916;49.798;10.022;2022-09-09T14:28:10;21.70;1.00
5779;DHT22;2916;49.798;10.022;2022-09-09T14:30:40;21.50;1.00
5779;DHT22;2916;49.798;10.022;2022-09-09T14:33:12;21.60;1.00
5779;DHT22;2916;49.798;10.022;2022-09-09T14:35:41;21.60;1.00
5779;DHT22;2916;49.798;10.022;2022-09-09T14:38:10;21.80;1.00
5779;DHT22;2916;49.798;10.022;2022-09-09T14:40:37;21.90;1.00
5779;DHT22;2916;49.798;10.022;2022-09-09T14:43:05;21.80;1.00
5779;DHT22;2916;49.798;10.022;2022-09-09T14:45:32;21.90;1.00
5779;DHT22;2916;49.798;10.022;2022-09-09T14:48:03;21.70;1.00
5779;DHT22;2916;49.798;10.022;2022-09-09T14:50:32;21.60;1.00
5779;DHT22;2916;49.798;10.022;2022-09-09T14:53:00;21.70;1.00
5779;DHT22;2916;49.798;10.022;2022-09-09T14:55:27;21.70;1.00
5779;DHT22;2916;49.798;10.022;2022-09-09T14:57:55;21.60;1.00
5779;DHT22;2916;49.798;10.022;2022-09-09T15:00:22;21.50;1.00
5779;DHT22;2916;49.798;10.022;2022-09-09T15:02:52;21.00;1.00
5779;DHT22;2916;49.798;10.022;2022-09-09T15:05:19;20.70;1.00
5779;DHT22;2916;49.798;10.022;2022-09-09T15:07:48;20.30;1.00
5779;DHT22;2916;49.798;10.022;2022-09-09T15:10:16;20.00;1.00
5779;DHT22;2916;49.798;10.022;2022-09-09T15:12:44;20.00;1.30
5779;DHT22;2916;49.798;10.022;2022-09-09T15:15:11;20.00;5.70
5779;DHT22;2916;49.798;10.022;2022-09-09T15:17:39;19.90;2.30
5779;DHT22;2916;49.798;10.022;2022-09-09T15:20:07;19.90;2.40
5779;DHT22;2916;49.798;10.022;2022-09-09T15:22:35;20.10;1.00
5779;DHT22;2916;49.798;10.022;2022-09-09T15:25:05;20.00;1.00
5779;DHT22;2916;49.798;10.022;2022-09-09T15:27:33;20.10;1.00
5779;DHT22;2916;49.798;10.022;2022-09-09T15:30:01;20.20;1.00
5779;DHT22;2916;49.798;10.022;2022-09-09T15:32:28;20.10;1.00
5779;DHT22;2916;49.798;10.022;2022-09-09T15:34:55;20.00;1.00
5779;DHT22;2916;49.798;10.022;2022-09-09T15:37:23;20.00;1.00
5779;DHT22;2916;49.798;10.022;2022-09-09T15:39:50;19.90;2.40
5779;DHT22;2916;49.798;10.022;2022-09-09T15:42:18;19.90;1.20
5779;DHT22;2916;49.798;10.022;2022-09-09T15:44:48;20.00;1.00
5779;DHT22;2916;49.798;10.022;2022-09-09T15:47:15;20.20;3.50
5779;DHT22;2916;49.798;10.022;2022-09-09T15:49:42;20.30;3.80
5779;DHT22;2916;49.798;10.022;2022-09-09T15:52:10;20.50;1.00
5779;DHT22;2916;49.798;10.022;2022-09-09T15:54:37;20.50;1.00
5779;DHT22;2916;49.798;10.022;2022-09-09T15:57:07;20.50;1.00
5779;DHT22;2916;49.798;10.022;2022-09-09T15:59:39;20.40;1.00
5779;DHT22;2916;49.798;10.022;2022-09-09T16:02:06;20.40;1.00
5779;DHT22;2916;49.798;10.022;2022-09-09T16:04:34;20.40;1.00
5779;DHT22;2916;49.798;10.022;2022-09-09T16:07:02;20.30;1.00
5779;DHT22;2916;49.798;10.022;2022-09-09T16:09:32;20.20;1.00
5779;DHT22;2916;49.798;10.022;2022-09-09T16:12:01;20.20;1.00
5779;DHT22;2916;49.798;10.022;2022-09-09T16:14:32;20.20;1.00
5779;DHT22;2916;49.798;10.022;2022-09-09T16:17:03;20.00;1.00
5779;DHT22;2916;49.798;10.022;2022-09-09T16:19:31;20.10;1.00
5779;DHT22;2916;49.798;10.022;2022-09-09T16:22:00;20.20;1.00
5779;DHT22;2916;49.798;10.022;2022-09-09T16:24:28;20.00;1.00
5779;DHT22;2916;49.798;10.022;2022-09-09T16:26:55;20.00;1.00
5779;DHT22;2916;49.798;10.022;2022-09-09T16:29:22;20.00;1.00
5779;DHT22;2916;49.798;10.022;2022-09-09T16:31:53;19.90;1.00
5779;DHT22;2916;49.798;10.022;2022-09-09T16:34:22;19.80;1.00
5779;DHT22;2916;49.798;10.022;2022-09-09T16:36:49;19.70;1.00